sensor_id;sensor_type;location;lat;lon;timestamp;P1;durP1;ratioP1;P2;durP2;ratioP2
13764;SDS011;6953;48.810;9.204;2022-10-16T00:00:31;0.20;;;0.20;;
13764;SDS011;6953;48.810;9.204;2022-10-16T00:02:57;0.20;;;0.20;;
13764;SDS011;6953;48.810;9.204;2022-10-16T00:05:23;0.20;;;0.20;;
13764;SDS011;6953;48.810;9.204;2022-10-16T00:07:48;0.20;;;0.20;;
13764;SDS011;6953;48.810;9.204;2022-10-16T00:10:13;0.20;;;0.20;;
13764;SDS011;6953;48.810;9.204;2022-10-16T00:12:39;0.20;;;0.20;;
13764;SDS011;6953;48.810;9.204;2022-10-16T00:15:04;0.20;;;0.20;;
13764;SDS011;6953;48.810;9.204;2022-10-16T00:17:30;0.20;;;0.20;;
13764;SDS011;6953;48.810;9.204;2022-10-16T00:19:56;0.30;;;0.30;;
13764;SDS011;6953;48.810;9.204;2022-10-16T00:22:21;0.30;;;0.30;;
13764;SDS011;6953;48.810;9.204;2022-10-16T00:24:47;0.20;;;0.20;;
13764;SDS011;6953;48.810;9.204;2022-10-16T00:27:12;0.20;;;0.20;;
13764;SDS011;6953;48.810;9.204;2022-10-16T00:29:38;0.20;;;0.20;;
13764;SDS011;6953;48.810;9.204;2022-10-16T00:32:03;0.20;;;0.20;;
13764;SDS011;6953;48.810;9.204;2022-10-16T00:34:28;0.20;;;0.20;;
13764;SDS011;6953;48.810;9.204;2022-10-16T00:36:54;0.20;;;0.20;;
13764;SDS011;6953;48.810;9.204;2022-10-16T00:39:19;0.20;;;0.20;;
13764;SDS011;6953;48.810;9.204;2022-10-16T00:41:44;0.20;;;0.20;;
13764;SDS011;6953;48.810;9.204;2022-10-16T00:47:08;0.20;;;0.20;;
13764;SDS011;6953;48.810;9.204;2022-10-16T00:49:35;0.25;;;0.25;;
13764;SDS011;6953;48.810;9.204;2022-10-16T00:52:01;0.20;;;0.20;;
13764;SDS011;6953;48.810;9.204;2022-10-16T00:54:27;0.20;;;0.20;;
13764;SDS011;6953;48.810;9.204;2022-10-16T00:56:55;0.30;;;0.30;;
13764;SDS011;6953;48.810;9.204;2022-10-16T00:59:27;0.20;;;0.20;;
13764;SDS011;6953;48.810;9.204;2022-10-16T01:01:57;0.20;;;0.20;;
13764;SDS011;6953;48.810;9.204;2022-10-16T01:04:23;0.30;;;0.30;;
13764;SDS011;6953;48.810;9.204;2022-10-16T01:07:06;0.20;;;0.20;;
13764;SDS011;6953;48.810;9.204;2022-10-16T01:12:46;0.28;;;0.28;;
13764;SDS011;6953;48.810;9.204;2022-10-16T01:21:08;0.25;;;0.25;;
13764;SDS011;6953;48.810;9.204;2022-10-16T01:29:15;0.28;;;0.28;;
13764;SDS011;6953;48.810;9.204;2022-10-16T01:31:53;0.30;;;0.30;;
13764;SDS011;6953;48.810;9.204;2022-10-16T01:34:25;0.20;;;0.20;;
13764;SDS011;6953;48.810;9.204;2022-10-16T01:37:02;0.20;;;0.20;;
13764;SDS011;6953;48.810;9.204;2022-10-16T01:39:33;0.22;;;0.22;;
13764;SDS011;6953;48.810;9.204;2022-10-16T01:44:37;0.30;;;0.30;;
13764;SDS011;6953;48.810;9.204;2022-10-16T01:47:06;0.20;;;0.20;;
13764;SDS011;6953;48.810;9.204;2022-10-16T01:49:35;0.30;;;0.30;;
13764;SDS011;6953;48.810;9.204;2022-10-16T01:52:04;0.20;;;0.20;;
13764;SDS011;6953;48.810;9.204;2022-10-16T01:54:34;0.20;;;0.20;;
13764;SDS011;6953;48.810;9.204;2022-10-16T01:57:01;0.20;;;0.20;;
13764;SDS011;6953;48.810;9.204;2022-10-16T01:59:31;0.20;;;0.20;;
13764;SDS011;6953;48.810;9.204;2022-10-16T02:02:01;0.20;;;0.20;;
13764;SDS011;6953;48.810;9.204;2022-10-16T02:04:47;0.20;;;0.20;;
13764;SDS011;6953;48.810;9.204;2022-10-16T02:07:18;0.20;;;0.20;;
13764;SDS011;6953;48.810;9.204;2022-10-16T02:09:44;0.20;;;0.20;;
13764;SDS011;6953;48.810;9.204;2022-10-16T02:15:07;0.20;;;0.20;;
13764;SDS011;6953;48.810;9.204;2022-10-16T02:17:33;0.20;;;0.20;;
13764;SDS011;6953;48.810;9.204;2022-10-16T02:19:58;0.20;;;0.20;;
13764;SDS011;6953;48.810;9.204;2022-10-16T02:22:28;0.20;;;0.20;;
13764;SDS011;6953;48.810;9.204;2022-10-16T02:27:41;0.20;;;0.20;;
13764;SDS011;6953;48.810;9.204;2022-10-16T02:30:21;0.20;;;0.20;;
13764;SDS011;6953;48.810;9.204;2022-10-16T02:32:51;0.20;;;0.20;;
13764;SDS011;6953;48.810;9.204;2022-10-16T02:35:18;0.20;;;0.20;;
13764;SDS011;6953;48.810;9.204;2022-10-16T02:37:46;0.20;;;0.20;;
13764;SDS011;6953;48.810;9.204;2022-10-16T02:40:14;0.28;;;0.28;;
13764;SDS011;6953;48.810;9.204;2022-10-16T02:42:40;0.20;;;0.20;;
13764;SDS011;6953;48.810;9.204;2022-10-16T02:45:06;0.30;;;0.30;;
13764;SDS011;6953;48.810;9.204;2022-10-16T02:47:34;0.20;;;0.20;;
13764;SDS011;6953;48.810;9.204;2022-10-16T02:49:59;0.20;;;0.20;;
13764;SDS011;6953;48.810;9.204;2022-10-16T02:52:25;0.30;;;0.30;;
13764;SDS011;6953;48.810;9.204;2022-10-16T02:54:51;0.20;;;0.20;;
13764;SDS011;6953;48.810;9.204;2022-10-16T02:57:16;0.20;;;0.20;;
13764;SDS011;6953;48.810;9.204;2022-10-16T02:59:42;0.20;;;0.20;;
13764;SDS011;6953;48.810;9.204;2022-10-16T03:02:08;0.22;;;0.22;;
13764;SDS011;6953;48.810;9.204;2022-10-16T03:04:34;0.20;;;0.20;;
13764;SDS011;6953;48.810;9.204;2022-10-16T03:06:59;0.30;;;0.30;;
13764;SDS011;6953;48.810;9.204;2022-10-16T03:09:24;0.20;;;0.20;;
13764;SDS011;6953;48.810;9.204;2022-10-16T03:11:50;0.20;;;0.20;;
13764;SDS011;6953;48.810;9.204;2022-10-16T03:14:15;0.30;;;0.30;;
13764;SDS011;6953;48.810;9.204;2022-10-16T03:16:40;0.30;;;0.30;;
13764;SDS011;6953;48.810;9.204;2022-10-16T03:19:06;0.30;;;0.30;;
13764;SDS011;6953;48.810;9.204;2022-10-16T03:21:32;0.30;;;0.30;;
13764;SDS011;6953;48.810;9.204;2022-10-16T03:23:57;0.20;;;0.20;;
13764;SDS011;6953;48.810;9.204;2022-10-16T03:26:22;0.20;;;0.20;;
13764;SDS011;6953;48.810;9.204;2022-10-16T03:28:48;0.20;;;0.20;;
13764;SDS011;6953;48.810;9.204;2022-10-16T03:31:13;0.20;;;0.20;;
13764;SDS011;6953;48.810;9.204;2022-10-16T03:33:38;0.30;;;0.30;;
13764;SDS011;6953;48.810;9.204;2022-10-16T03:36:04;0.30;;;0.30;;
13764;SDS011;6953;48.810;9.204;2022-10-16T03:38:29;0.20;;;0.20;;
13764;SDS011;6953;48.810;9.204;2022-10-16T03:40:55;0.20;;;0.20;;
13764;SDS011;6953;48.810;9.204;2022-10-16T03:43:20;0.20;;;0.20;;
13764;SDS011;6953;48.810;9.204;2022-10-16T03:45:45;0.30;;;0.30;;
13764;SDS011;6953;48.810;9.204;2022-10-16T03:48:11;0.20;;;0.20;;
13764;SDS011;6953;48.810;9.204;2022-10-16T03:50:36;0.30;;;0.30;;
13764;SDS011;6953;48.810;9.204;2022-10-16T03:53:02;0.30;;;0.30;;
13764;SDS011;6953;48.810;9.204;2022-10-16T03:55:28;0.20;;;0.20;;
13764;SDS011;6953;48.810;9.204;2022-10-16T03:57:53;0.20;;;0.20;;
13764;SDS011;6953;48.810;9.204;2022-10-16T04:00:19;0.30;;;0.30;;
13764;SDS011;6953;48.810;9.204;2022-10-16T04:02:44;0.20;;;0.20;;
13764;SDS011;6953;48.810;9.204;2022-10-16T04:05:09;0.30;;;0.30;;
13764;SDS011;6953;48.810;9.204;2022-10-16T04:07:35;0.20;;;0.20;;
13764;SDS011;6953;48.810;9.204;2022-10-16T04:10:01;0.20;;;0.20;;
13764;SDS011;6953;48.810;9.204;2022-10-16T04:12:26;0.30;;;0.30;;
13764;SDS011;6953;48.810;9.204;2022-10-16T04:14:52;0.20;;;0.20;;
13764;SDS011;6953;48.810;9.204;2022-10-16T04:17:17;0.20;;;0.20;;
13764;SDS011;6953;48.810;9.204;2022-10-16T04:19:42;0.30;;;0.30;;
13764;SDS011;6953;48.810;9.204;2022-10-16T04:22:08;0.20;;;0.20;;
13764;SDS011;6953;48.810;9.204;2022-10-16T04:24:33;0.30;;;0.30;;
13764;SDS011;6953;48.810;9.204;2022-10-16T04:26:58;0.20;;;0.20;;
13764;SDS011;6953;48.810;9.204;2022-10-16T04:29:24;0.20;;;0.20;;
13764;SDS011;6953;48.810;9.204;2022-10-16T04:31:49;0.20;;;0.20;;
13764;SDS011;6953;48.810;9.204;2022-10-16T04:34:15;0.30;;;0.30;;
13764;SDS011;6953;48.810;9.204;2022-10-16T04:36:40;0.30;;;0.30;;
13764;SDS011;6953;48.810;9.204;2022-10-16T04:39:05;0.30;;;0.30;;
13764;SDS011;6953;48.810;9.204;2022-10-16T04:41:31;0.20;;;0.20;;
13764;SDS011;6953;48.810;9.204;2022-10-16T04:43:56;0.20;;;0.20;;
13764;SDS011;6953;48.810;9.204;2022-10-16T04:46:21;0.20;;;0.20;;
13764;SDS011;6953;48.810;9.204;2022-10-16T04:48:47;0.22;;;0.22;;
13764;SDS011;6953;48.810;9.204;2022-10-16T04:51:12;0.20;;;0.20;;
13764;SDS011;6953;48.810;9.204;2022-10-16T04:53:37;0.20;;;0.20;;
13764;SDS011;6953;48.810;9.204;2022-10-16T04:56:03;0.20;;;0.20;;
13764;SDS011;6953;48.810;9.204;2022-10-16T04:58:28;0.20;;;0.20;;
13764;SDS011;6953;48.810;9.204;2022-10-16T05:00:54;0.30;;;0.30;;
13764;SDS011;6953;48.810;9.204;2022-10-16T05:03:19;0.20;;;0.20;;
13764;SDS011;6953;48.810;9.204;2022-10-16T05:05:45;0.25;;;0.25;;
13764;SDS011;6953;48.810;9.204;2022-10-16T05:08:12;0.30;;;0.30;;
13764;SDS011;6953;48.810;9.204;2022-10-16T05:10:38;0.30;;;0.30;;
13764;SDS011;6953;48.810;9.204;2022-10-16T05:13:05;0.22;;;0.22;;
13764;SDS011;6953;48.810;9.204;2022-10-16T05:15:31;0.30;;;0.30;;
13764;SDS011;6953;48.810;9.204;2022-10-16T05:17:56;0.20;;;0.20;;
13764;SDS011;6953;48.810;9.204;2022-10-16T05:20:22;0.30;;;0.30;;
13764;SDS011;6953;48.810;9.204;2022-10-16T05:22:48;0.30;;;0.30;;
13764;SDS011;6953;48.810;9.204;2022-10-16T05:25:13;0.20;;;0.20;;
13764;SDS011;6953;48.810;9.204;2022-10-16T05:27:39;0.30;;;0.30;;
13764;SDS011;6953;48.810;9.204;2022-10-16T05:30:04;0.30;;;0.30;;
13764;SDS011;6953;48.810;9.204;2022-10-16T05:32:30;0.30;;;0.30;;
13764;SDS011;6953;48.810;9.204;2022-10-16T05:34:56;0.30;;;0.30;;
13764;SDS011;6953;48.810;9.204;2022-10-16T05:37:21;0.20;;;0.20;;
13764;SDS011;6953;48.810;9.204;2022-10-16T05:39:46;0.20;;;0.20;;
13764;SDS011;6953;48.810;9.204;2022-10-16T05:42:12;0.30;;;0.30;;
13764;SDS011;6953;48.810;9.204;2022-10-16T05:44:37;0.30;;;0.30;;
13764;SDS011;6953;48.810;9.204;2022-10-16T05:47:03;0.30;;;0.30;;
13764;SDS011;6953;48.810;9.204;2022-10-16T05:49:28;0.20;;;0.20;;
13764;SDS011;6953;48.810;9.204;2022-10-16T05:51:53;0.20;;;0.20;;
13764;SDS011;6953;48.810;9.204;2022-10-16T05:54:19;0.22;;;0.22;;
13764;SDS011;6953;48.810;9.204;2022-10-16T05:56:44;0.30;;;0.30;;
13764;SDS011;6953;48.810;9.204;2022-10-16T05:59:09;0.20;;;0.20;;
13764;SDS011;6953;48.810;9.204;2022-10-16T06:01:35;0.20;;;0.20;;
13764;SDS011;6953;48.810;9.204;2022-10-16T06:04:00;0.20;;;0.20;;
13764;SDS011;6953;48.810;9.204;2022-10-16T06:06:26;0.20;;;0.20;;
13764;SDS011;6953;48.810;9.204;2022-10-16T06:08:53;0.30;;;0.30;;
13764;SDS011;6953;48.810;9.204;2022-10-16T06:11:20;0.30;;;0.30;;
13764;SDS011;6953;48.810;9.204;2022-10-16T06:13:51;0.20;;;0.20;;
13764;SDS011;6953;48.810;9.204;2022-10-16T06:16:18;0.20;;;0.20;;
13764;SDS011;6953;48.810;9.204;2022-10-16T06:18:43;0.30;;;0.30;;
13764;SDS011;6953;48.810;9.204;2022-10-16T06:21:14;0.30;;;0.30;;
13764;SDS011;6953;48.810;9.204;2022-10-16T06:23:42;0.25;;;0.25;;
13764;SDS011;6953;48.810;9.204;2022-10-16T06:26:09;0.28;;;0.28;;
13764;SDS011;6953;48.810;9.204;2022-10-16T06:28:35;0.30;;;0.30;;
13764;SDS011;6953;48.810;9.204;2022-10-16T06:31:02;0.20;;;0.20;;
13764;SDS011;6953;48.810;9.204;2022-10-16T06:33:28;0.30;;;0.30;;
13764;SDS011;6953;48.810;9.204;2022-10-16T06:35:54;0.20;;;0.20;;
13764;SDS011;6953;48.810;9.204;2022-10-16T06:38:25;0.30;;;0.30;;
13764;SDS011;6953;48.810;9.204;2022-10-16T06:40:52;0.20;;;0.20;;
13764;SDS011;6953;48.810;9.204;2022-10-16T06:43:18;0.20;;;0.20;;
13764;SDS011;6953;48.810;9.204;2022-10-16T06:45:49;0.20;;;0.20;;
13764;SDS011;6953;48.810;9.204;2022-10-16T06:48:22;0.20;;;0.20;;
13764;SDS011;6953;48.810;9.204;2022-10-16T06:50:57;0.20;;;0.20;;
13764;SDS011;6953;48.810;9.204;2022-10-16T06:53:24;0.20;;;0.20;;
13764;SDS011;6953;48.810;9.204;2022-10-16T06:55:49;0.20;;;0.20;;
13764;SDS011;6953;48.810;9.204;2022-10-16T06:58:15;0.20;;;0.20;;
13764;SDS011;6953;48.810;9.204;2022-10-16T07:00:40;0.20;;;0.20;;
13764;SDS011;6953;48.810;9.204;2022-10-16T07:03:06;0.22;;;0.22;;
13764;SDS011;6953;48.810;9.204;2022-10-16T07:05:31;0.20;;;0.20;;
13764;SDS011;6953;48.810;9.204;2022-10-16T07:07:56;0.28;;;0.28;;
13764;SDS011;6953;48.810;9.204;2022-10-16T07:10:22;0.20;;;0.20;;
13764;SDS011;6953;48.810;9.204;2022-10-16T07:12:49;0.28;;;0.28;;
13764;SDS011;6953;48.810;9.204;2022-10-16T07:15:14;0.30;;;0.30;;
13764;SDS011;6953;48.810;9.204;2022-10-16T07:17:40;0.20;;;0.20;;
13764;SDS011;6953;48.810;9.204;2022-10-16T07:20:05;0.20;;;0.20;;
13764;SDS011;6953;48.810;9.204;2022-10-16T07:22:31;0.20;;;0.20;;
13764;SDS011;6953;48.810;9.204;2022-10-16T07:24:57;0.20;;;0.20;;
13764;SDS011;6953;48.810;9.204;2022-10-16T07:27:23;0.20;;;0.20;;
13764;SDS011;6953;48.810;9.204;2022-10-16T07:29:49;0.22;;;0.22;;
13764;SDS011;6953;48.810;9.204;2022-10-16T07:32:14;0.20;;;0.20;;
13764;SDS011;6953;48.810;9.204;2022-10-16T07:34:40;0.20;;;0.20;;
13764;SDS011;6953;48.810;9.204;2022-10-16T07:37:05;0.20;;;0.20;;
13764;SDS011;6953;48.810;9.204;2022-10-16T07:39:30;0.20;;;0.20;;
13764;SDS011;6953;48.810;9.204;2022-10-16T07:41:56;0.20;;;0.20;;
13764;SDS011;6953;48.810;9.204;2022-10-16T07:44:21;0.20;;;0.20;;
13764;SDS011;6953;48.810;9.204;2022-10-16T07:46:46;0.20;;;0.20;;
13764;SDS011;6953;48.810;9.204;2022-10-16T07:49:12;0.20;;;0.20;;
13764;SDS011;6953;48.810;9.204;2022-10-16T07:51:37;0.20;;;0.20;;
13764;SDS011;6953;48.810;9.204;2022-10-16T07:54:04;0.20;;;0.20;;
13764;SDS011;6953;48.810;9.204;2022-10-16T07:56:30;0.20;;;0.20;;
13764;SDS011;6953;48.810;9.204;2022-10-16T07:58:57;0.20;;;0.20;;
13764;SDS011;6953;48.810;9.204;2022-10-16T08:01:23;0.20;;;0.20;;
13764;SDS011;6953;48.810;9.204;2022-10-16T08:03:50;0.20;;;0.20;;
13764;SDS011;6953;48.810;9.204;2022-10-16T08:06:17;0.20;;;0.20;;
13764;SDS011;6953;48.810;9.204;2022-10-16T08:08:43;0.20;;;0.20;;
13764;SDS011;6953;48.810;9.204;2022-10-16T08:11:09;0.20;;;0.20;;
13764;SDS011;6953;48.810;9.204;2022-10-16T08:13:34;0.20;;;0.20;;
13764;SDS011;6953;48.810;9.204;2022-10-16T08:16:00;0.20;;;0.20;;
13764;SDS011;6953;48.810;9.204;2022-10-16T08:18:26;0.20;;;0.20;;
13764;SDS011;6953;48.810;9.204;2022-10-16T08:20:55;0.20;;;0.20;;
13764;SDS011;6953;48.810;9.204;2022-10-16T08:23:22;0.20;;;0.20;;
13764;SDS011;6953;48.810;9.204;2022-10-16T08:25:50;0.17;;;0.17;;
13764;SDS011;6953;48.810;9.204;2022-10-16T08:28:16;0.10;;;0.10;;
13764;SDS011;6953;48.810;9.204;2022-10-16T08:30:41;0.13;;;0.13;;
13764;SDS011;6953;48.810;9.204;2022-10-16T08:33:07;0.10;;;0.10;;
13764;SDS011;6953;48.810;9.204;2022-10-16T08:35:32;0.20;;;0.20;;
13764;SDS011;6953;48.810;9.204;2022-10-16T08:37:58;0.20;;;0.20;;
13764;SDS011;6953;48.810;9.204;2022-10-16T08:40:24;0.10;;;0.10;;
13764;SDS011;6953;48.810;9.204;2022-10-16T08:50:48;0.10;;;0.10;;
13764;SDS011;6953;48.810;9.204;2022-10-16T08:53:58;0.10;;;0.10;;
13764;SDS011;6953;48.810;9.204;2022-10-16T08:56:08;0.10;;;0.10;;
13764;SDS011;6953;48.810;9.204;2022-10-16T08:58:33;0.10;;;0.10;;
13764;SDS011;6953;48.810;9.204;2022-10-16T09:01:00;0.10;;;0.10;;
13764;SDS011;6953;48.810;9.204;2022-10-16T09:11:44;0.17;;;0.17;;
13764;SDS011;6953;48.810;9.204;2022-10-16T09:17:21;0.10;;;0.10;;
13764;SDS011;6953;48.810;9.204;2022-10-16T09:19:57;0.10;;;0.10;;
13764;SDS011;6953;48.810;9.204;2022-10-16T09:22:44;0.10;;;0.10;;
13764;SDS011;6953;48.810;9.204;2022-10-16T09:25:11;0.10;;;0.10;;
13764;SDS011;6953;48.810;9.204;2022-10-16T09:27:39;0.10;;;0.10;;
13764;SDS011;6953;48.810;9.204;2022-10-16T09:30:12;0.10;;;0.10;;
13764;SDS011;6953;48.810;9.204;2022-10-16T09:32:38;0.05;;;0.05;;
13764;SDS011;6953;48.810;9.204;2022-10-16T09:35:09;0.00;;;0.00;;
13764;SDS011;6953;48.810;9.204;2022-10-16T09:37:38;0.10;;;0.10;;
13764;SDS011;6953;48.810;9.204;2022-10-16T09:40:04;0.00;;;0.00;;
13764;SDS011;6953;48.810;9.204;2022-10-16T09:42:30;0.10;;;0.10;;
13764;SDS011;6953;48.810;9.204;2022-10-16T09:44:59;0.10;;;0.10;;
13764;SDS011;6953;48.810;9.204;2022-10-16T09:47:25;0.08;;;0.08;;
13764;SDS011;6953;48.810;9.204;2022-10-16T09:49:56;0.00;;;0.00;;
13764;SDS011;6953;48.810;9.204;2022-10-16T09:52:27;0.10;;;0.10;;
13764;SDS011;6953;48.810;9.204;2022-10-16T09:54:55;0.10;;;0.10;;
13764;SDS011;6953;48.810;9.204;2022-10-16T09:57:22;0.00;;;0.00;;
13764;SDS011;6953;48.810;9.204;2022-10-16T09:59:49;0.00;;;0.00;;
13764;SDS011;6953;48.810;9.204;2022-10-16T10:02:19;0.00;;;0.00;;
13764;SDS011;6953;48.810;9.204;2022-10-16T10:04:53;0.00;;;0.00;;
13764;SDS011;6953;48.810;9.204;2022-10-16T10:07:42;0.00;;;0.00;;
13764;SDS011;6953;48.810;9.204;2022-10-16T10:10:22;0.00;;;0.00;;
13764;SDS011;6953;48.810;9.204;2022-10-16T10:12:49;0.00;;;0.00;;
13764;SDS011;6953;48.810;9.204;2022-10-16T10:15:15;0.05;;;0.05;;
13764;SDS011;6953;48.810;9.204;2022-10-16T10:17:53;0.03;;;0.03;;
13764;SDS011;6953;48.810;9.204;2022-10-16T10:22:53;0.00;;;0.00;;
13764;SDS011;6953;48.810;9.204;2022-10-16T10:28:06;0.00;;;0.00;;
13764;SDS011;6953;48.810;9.204;2022-10-16T10:36:12;0.00;;;0.00;;
13764;SDS011;6953;48.810;9.204;2022-10-16T10:42:17;0.00;;;0.00;;
13764;SDS011;6953;48.810;9.204;2022-10-16T10:47:56;0.00;;;0.00;;
13764;SDS011;6953;48.810;9.204;2022-10-16T10:50:49;0.00;;;0.00;;
13764;SDS011;6953;48.810;9.204;2022-10-16T10:53:33;0.00;;;0.00;;
13764;SDS011;6953;48.810;9.204;2022-10-16T10:58:52;0.00;;;0.00;;
13764;SDS011;6953;48.810;9.204;2022-10-16T11:01:56;0.00;;;0.00;;
13764;SDS011;6953;48.810;9.204;2022-10-16T11:07:05;0.00;;;0.00;;
13764;SDS011;6953;48.810;9.204;2022-10-16T11:09:44;0.00;;;0.00;;
13764;SDS011;6953;48.810;9.204;2022-10-16T11:12:20;0.00;;;0.00;;
13764;SDS011;6953;48.810;9.204;2022-10-16T11:14:55;0.00;;;0.00;;
13764;SDS011;6953;48.810;9.204;2022-10-16T11:17:28;0.00;;;0.00;;
13764;SDS011;6953;48.810;9.204;2022-10-16T11:20:11;0.00;;;0.00;;
13764;SDS011;6953;48.810;9.204;2022-10-16T11:22:41;0.00;;;0.00;;
13764;SDS011;6953;48.810;9.204;2022-10-16T11:25:16;0.00;;;0.00;;
13764;SDS011;6953;48.810;9.204;2022-10-16T11:27:48;0.00;;;0.00;;
13764;SDS011;6953;48.810;9.204;2022-10-16T11:41:00;0.00;;;0.00;;
13764;SDS011;6953;48.810;9.204;2022-10-16T11:43:37;0.00;;;0.00;;
13764;SDS011;6953;48.810;9.204;2022-10-16T11:46:13;0.00;;;0.00;;
13764;SDS011;6953;48.810;9.204;2022-10-16T11:48:50;0.00;;;0.00;;
13764;SDS011;6953;48.810;9.204;2022-10-16T11:56:35;0.00;;;0.00;;
13764;SDS011;6953;48.810;9.204;2022-10-16T11:59:05;0.00;;;0.00;;
13764;SDS011;6953;48.810;9.204;2022-10-16T12:04:39;0.00;;;0.00;;
13764;SDS011;6953;48.810;9.204;2022-10-16T12:07:12;0.00;;;0.00;;
13764;SDS011;6953;48.810;9.204;2022-10-16T12:09:42;0.00;;;0.00;;
13764;SDS011;6953;48.810;9.204;2022-10-16T12:15:33;0.00;;;0.00;;
13764;SDS011;6953;48.810;9.204;2022-10-16T12:17:58;0.00;;;0.00;;
13764;SDS011;6953;48.810;9.204;2022-10-16T12:25:31;0.00;;;0.00;;
13764;SDS011;6953;48.810;9.204;2022-10-16T12:28:25;0.00;;;0.00;;
13764;SDS011;6953;48.810;9.204;2022-10-16T12:30:56;0.00;;;0.00;;
13764;SDS011;6953;48.810;9.204;2022-10-16T12:33:31;0.00;;;0.00;;
13764;SDS011;6953;48.810;9.204;2022-10-16T12:36:00;0.00;;;0.00;;
13764;SDS011;6953;48.810;9.204;2022-10-16T12:41:30;0.00;;;0.00;;
13764;SDS011;6953;48.810;9.204;2022-10-16T12:43:57;0.00;;;0.00;;
13764;SDS011;6953;48.810;9.204;2022-10-16T12:49:04;0.00;;;0.00;;
13764;SDS011;6953;48.810;9.204;2022-10-16T13:05:31;0.00;;;0.00;;
13764;SDS011;6953;48.810;9.204;2022-10-16T13:18:55;0.00;;;0.00;;
13764;SDS011;6953;48.810;9.204;2022-10-16T13:21:48;0.00;;;0.00;;
13764;SDS011;6953;48.810;9.204;2022-10-16T13:24:38;0.00;;;0.00;;
13764;SDS011;6953;48.810;9.204;2022-10-16T13:29:52;0.00;;;0.00;;
13764;SDS011;6953;48.810;9.204;2022-10-16T13:32:20;0.00;;;0.00;;
13764;SDS011;6953;48.810;9.204;2022-10-16T13:34:47;0.00;;;0.00;;
13764;SDS011;6953;48.810;9.204;2022-10-16T13:37:23;0.00;;;0.00;;
13764;SDS011;6953;48.810;9.204;2022-10-16T13:39:49;0.00;;;0.00;;
13764;SDS011;6953;48.810;9.204;2022-10-16T13:42:26;0.00;;;0.00;;
13764;SDS011;6953;48.810;9.204;2022-10-16T13:44:53;0.00;;;0.00;;
13764;SDS011;6953;48.810;9.204;2022-10-16T13:47:21;0.00;;;0.00;;
13764;SDS011;6953;48.810;9.204;2022-10-16T13:50:01;0.00;;;0.00;;
13764;SDS011;6953;48.810;9.204;2022-10-16T13:52:37;0.00;;;0.00;;
13764;SDS011;6953;48.810;9.204;2022-10-16T13:55:04;0.10;;;0.10;;
13764;SDS011;6953;48.810;9.204;2022-10-16T13:57:37;0.00;;;0.00;;
13764;SDS011;6953;48.810;9.204;2022-10-16T14:00:02;0.00;;;0.00;;
13764;SDS011;6953;48.810;9.204;2022-10-16T14:05:00;0.00;;;0.00;;
13764;SDS011;6953;48.810;9.204;2022-10-16T14:07:33;0.00;;;0.00;;
13764;SDS011;6953;48.810;9.204;2022-10-16T14:10:22;0.03;;;0.03;;
13764;SDS011;6953;48.810;9.204;2022-10-16T14:12:54;0.10;;;0.10;;
13764;SDS011;6953;48.810;9.204;2022-10-16T14:15:21;0.00;;;0.00;;
13764;SDS011;6953;48.810;9.204;2022-10-16T14:17:49;0.00;;;0.00;;
13764;SDS011;6953;48.810;9.204;2022-10-16T14:20:16;0.00;;;0.00;;
13764;SDS011;6953;48.810;9.204;2022-10-16T14:22:58;0.00;;;0.00;;
13764;SDS011;6953;48.810;9.204;2022-10-16T14:25:26;0.10;;;0.10;;
13764;SDS011;6953;48.810;9.204;2022-10-16T14:30:52;0.10;;;0.10;;
13764;SDS011;6953;48.810;9.204;2022-10-16T14:38:35;0.10;;;0.10;;
13764;SDS011;6953;48.810;9.204;2022-10-16T14:41:02;0.10;;;0.10;;
13764;SDS011;6953;48.810;9.204;2022-10-16T14:45:59;0.10;;;0.10;;
13764;SDS011;6953;48.810;9.204;2022-10-16T14:48:26;0.00;;;0.00;;
13764;SDS011;6953;48.810;9.204;2022-10-16T14:50:52;0.08;;;0.08;;
13764;SDS011;6953;48.810;9.204;2022-10-16T14:53:17;0.10;;;0.10;;
13764;SDS011;6953;48.810;9.204;2022-10-16T14:55:43;0.10;;;0.10;;
13764;SDS011;6953;48.810;9.204;2022-10-16T14:58:11;0.00;;;0.00;;
13764;SDS011;6953;48.810;9.204;2022-10-16T15:00:44;0.00;;;0.00;;
13764;SDS011;6953;48.810;9.204;2022-10-16T15:03:09;0.10;;;0.10;;
13764;SDS011;6953;48.810;9.204;2022-10-16T15:05:35;0.10;;;0.10;;
13764;SDS011;6953;48.810;9.204;2022-10-16T15:08:00;0.10;;;0.10;;
13764;SDS011;6953;48.810;9.204;2022-10-16T15:10:27;0.10;;;0.10;;
13764;SDS011;6953;48.810;9.204;2022-10-16T15:12:53;0.10;;;0.10;;
13764;SDS011;6953;48.810;9.204;2022-10-16T15:17:47;0.10;;;0.10;;
13764;SDS011;6953;48.810;9.204;2022-10-16T15:20:21;0.10;;;0.10;;
13764;SDS011;6953;48.810;9.204;2022-10-16T15:22:47;0.10;;;0.10;;
13764;SDS011;6953;48.810;9.204;2022-10-16T15:25:19;0.10;;;0.10;;
13764;SDS011;6953;48.810;9.204;2022-10-16T15:28:00;0.10;;;0.10;;
13764;SDS011;6953;48.810;9.204;2022-10-16T15:30:27;0.00;;;0.00;;
13764;SDS011;6953;48.810;9.204;2022-10-16T15:32:52;0.00;;;0.00;;
13764;SDS011;6953;48.810;9.204;2022-10-16T15:35:18;0.10;;;0.10;;
13764;SDS011;6953;48.810;9.204;2022-10-16T15:37:44;0.10;;;0.10;;
13764;SDS011;6953;48.810;9.204;2022-10-16T15:40:10;0.10;;;0.10;;
13764;SDS011;6953;48.810;9.204;2022-10-16T15:42:35;0.10;;;0.10;;
13764;SDS011;6953;48.810;9.204;2022-10-16T15:45:01;0.10;;;0.10;;
13764;SDS011;6953;48.810;9.204;2022-10-16T15:47:28;0.10;;;0.10;;
13764;SDS011;6953;48.810;9.204;2022-10-16T15:49:53;0.10;;;0.10;;
13764;SDS011;6953;48.810;9.204;2022-10-16T15:52:18;0.10;;;0.10;;
13764;SDS011;6953;48.810;9.204;2022-10-16T15:54:44;0.10;;;0.10;;
13764;SDS011;6953;48.810;9.204;2022-10-16T15:57:09;0.10;;;0.10;;
13764;SDS011;6953;48.810;9.204;2022-10-16T15:59:34;0.10;;;0.10;;
13764;SDS011;6953;48.810;9.204;2022-10-16T16:02:00;0.10;;;0.10;;
13764;SDS011;6953;48.810;9.204;2022-10-16T16:04:25;0.10;;;0.10;;
13764;SDS011;6953;48.810;9.204;2022-10-16T16:06:51;0.10;;;0.10;;
13764;SDS011;6953;48.810;9.204;2022-10-16T16:09:16;0.10;;;0.10;;
13764;SDS011;6953;48.810;9.204;2022-10-16T16:11:41;0.10;;;0.10;;
13764;SDS011;6953;48.810;9.204;2022-10-16T16:14:07;0.10;;;0.10;;
13764;SDS011;6953;48.810;9.204;2022-10-16T16:16:36;0.10;;;0.10;;
13764;SDS011;6953;48.810;9.204;2022-10-16T16:19:06;0.10;;;0.10;;
13764;SDS011;6953;48.810;9.204;2022-10-16T16:21:32;0.10;;;0.10;;
13764;SDS011;6953;48.810;9.204;2022-10-16T16:23:58;0.10;;;0.10;;
13764;SDS011;6953;48.810;9.204;2022-10-16T16:28:57;0.10;;;0.10;;
13764;SDS011;6953;48.810;9.204;2022-10-16T16:31:26;0.10;;;0.10;;
13764;SDS011;6953;48.810;9.204;2022-10-16T16:33:53;0.10;;;0.10;;
13764;SDS011;6953;48.810;9.204;2022-10-16T16:36:19;0.10;;;0.10;;
13764;SDS011;6953;48.810;9.204;2022-10-16T16:38:45;0.10;;;0.10;;
13764;SDS011;6953;48.810;9.204;2022-10-16T16:41:18;0.10;;;0.10;;
13764;SDS011;6953;48.810;9.204;2022-10-16T16:43:49;0.10;;;0.10;;
13764;SDS011;6953;48.810;9.204;2022-10-16T16:46:17;0.20;;;0.20;;
13764;SDS011;6953;48.810;9.204;2022-10-16T16:48:44;0.10;;;0.10;;
13764;SDS011;6953;48.810;9.204;2022-10-16T16:51:14;0.10;;;0.10;;
13764;SDS011;6953;48.810;9.204;2022-10-16T16:53:45;0.17;;;0.17;;
13764;SDS011;6953;48.810;9.204;2022-10-16T16:56:12;0.20;;;0.20;;
13764;SDS011;6953;48.810;9.204;2022-10-16T16:58:38;0.10;;;0.10;;
13764;SDS011;6953;48.810;9.204;2022-10-16T17:01:03;0.10;;;0.10;;
13764;SDS011;6953;48.810;9.204;2022-10-16T17:03:30;0.10;;;0.10;;
13764;SDS011;6953;48.810;9.204;2022-10-16T17:06:01;0.13;;;0.13;;
13764;SDS011;6953;48.810;9.204;2022-10-16T17:08:32;0.10;;;0.10;;
13764;SDS011;6953;48.810;9.204;2022-10-16T17:11:02;0.10;;;0.10;;
13764;SDS011;6953;48.810;9.204;2022-10-16T17:13:29;0.20;;;0.20;;
13764;SDS011;6953;48.810;9.204;2022-10-16T17:15:59;0.20;;;0.20;;
13764;SDS011;6953;48.810;9.204;2022-10-16T17:18:25;0.20;;;0.20;;
13764;SDS011;6953;48.810;9.204;2022-10-16T17:20:50;0.20;;;0.20;;
13764;SDS011;6953;48.810;9.204;2022-10-16T17:23:16;0.20;;;0.20;;
13764;SDS011;6953;48.810;9.204;2022-10-16T17:25:42;0.20;;;0.20;;
13764;SDS011;6953;48.810;9.204;2022-10-16T17:28:09;0.20;;;0.20;;
13764;SDS011;6953;48.810;9.204;2022-10-16T17:30:41;0.10;;;0.10;;
13764;SDS011;6953;48.810;9.204;2022-10-16T17:33:07;0.20;;;0.20;;